createdAt,value
2023-09-03T00:02:17.769Z,4.60
2023-09-03T00:04:47.834Z,4.63
2023-09-03T00:07:17.910Z,4.47
2023-09-03T00:09:48.011Z,4.45
2023-09-03T00:12:18.101Z,4.32
2023-09-03T00:14:50.814Z,4.90
2023-09-03T00:17:20.941Z,4.00
2023-09-03T00:19:51.054Z,4.55
2023-09-03T00:22:21.131Z,4.90
2023-09-03T00:24:51.264Z,4.05
2023-09-03T00:27:21.354Z,4.35
2023-09-03T00:29:55.118Z,3.85
2023-09-03T00:32:25.264Z,4.45
2023-09-03T00:34:55.723Z,4.70
2023-09-03T00:37:25.854Z,4.65
2023-09-03T00:39:56.855Z,4.40
2023-09-03T00:42:28.411Z,4.57
2023-09-03T00:45:01.113Z,4.28
2023-09-03T00:47:31.261Z,4.28
2023-09-03T00:50:02.726Z,4.25
2023-09-03T00:52:33.244Z,4.63
2023-09-03T00:55:03.373Z,4.55
2023-09-03T00:57:33.509Z,4.75
2023-09-03T01:00:07.906Z,3.95
2023-09-03T01:02:39.547Z,4.65
2023-09-03T01:05:11.025Z,3.70
2023-09-03T01:07:41.242Z,3.67
2023-09-03T01:10:12.106Z,4.30
2023-09-03T01:12:51.135Z,4.03
2023-09-03T01:18:00.784Z,4.15
2023-09-03T01:20:33.179Z,3.47
2023-09-03T01:23:27.302Z,3.92
2023-09-03T01:26:19.352Z,4.20
2023-09-03T01:28:52.070Z,4.28
2023-09-03T01:31:23.635Z,4.63
2023-09-03T01:33:54.180Z,4.43
2023-09-03T01:36:24.567Z,3.88
2023-09-03T01:38:54.647Z,3.78
2023-09-03T01:41:24.783Z,3.65
2023-09-03T01:43:57.474Z,3.92
2023-09-03T01:46:36.716Z,4.55
2023-09-03T01:49:11.374Z,3.60
2023-09-03T01:51:44.959Z,4.13
2023-09-03T01:54:18.899Z,3.85
2023-09-03T01:56:52.920Z,4.13
2023-09-03T01:59:29.068Z,3.80
2023-09-03T02:01:59.329Z,4.03
2023-09-03T02:04:29.512Z,4.22
2023-09-03T02:06:59.617Z,4.00
2023-09-03T02:09:29.714Z,4.13
2023-09-03T02:11:59.830Z,3.83
2023-09-03T02:14:32.755Z,4.28
2023-09-03T02:17:02.855Z,4.40
2023-09-03T02:19:32.976Z,4.03
2023-09-03T02:22:03.117Z,4.10
2023-09-03T02:24:33.221Z,4.18
2023-09-03T02:27:03.312Z,4.03
2023-09-03T02:29:36.184Z,3.85
2023-09-03T02:32:06.806Z,4.30
2023-09-03T02:34:36.941Z,4.50
2023-09-03T02:37:08.751Z,4.65
2023-09-03T02:39:38.902Z,4.38
2023-09-03T02:42:09.211Z,3.92
2023-09-03T02:44:41.951Z,4.55
2023-09-03T02:47:12.058Z,5.35
2023-09-03T02:49:42.159Z,3.80
2023-09-03T02:52:12.438Z,4.32
2023-09-03T02:54:42.527Z,3.88
2023-09-03T02:57:12.967Z,4.28
2023-09-03T02:59:48.333Z,3.58
2023-09-03T03:02:18.532Z,4.40
2023-09-03T03:04:48.607Z,3.58
2023-09-03T03:07:18.692Z,4.00
2023-09-03T03:09:53.010Z,3.65
2023-09-03T03:12:23.458Z,4.00
2023-09-03T03:14:56.383Z,3.58
2023-09-03T03:17:27.256Z,3.85
2023-09-03T03:19:57.728Z,3.88
2023-09-03T03:22:28.530Z,3.90
2023-09-03T03:24:58.703Z,3.85
2023-09-03T03:27:29.476Z,3.88
2023-09-03T03:30:02.338Z,4.53
2023-09-03T03:32:33.265Z,3.83
2023-09-03T03:35:04.616Z,4.20
2023-09-03T03:37:34.710Z,3.72
2023-09-03T03:40:07.568Z,3.78
2023-09-03T03:42:37.699Z,3.10
2023-09-03T03:45:11.506Z,3.83
2023-09-03T03:47:41.655Z,4.30
2023-09-03T03:50:12.800Z,4.30
2023-09-03T03:52:44.358Z,3.70
2023-09-03T03:55:14.983Z,4.07
2023-09-03T03:57:45.467Z,4.50
2023-09-03T04:00:18.835Z,4.20
2023-09-03T04:02:48.929Z,4.25
2023-09-03T04:05:19.314Z,3.88
2023-09-03T04:07:49.396Z,4.20
2023-09-03T04:10:19.753Z,4.35
2023-09-03T04:12:50.373Z,3.90
2023-09-03T04:15:23.903Z,3.70
2023-09-03T04:17:54.175Z,4.50
2023-09-03T04:20:24.541Z,4.10
2023-09-03T04:22:55.247Z,4.10
2023-09-03T04:25:27.112Z,4.75
2023-09-03T04:27:57.315Z,3.90
2023-09-03T04:30:30.060Z,4.22
2023-09-03T04:33:01.198Z,4.22
2023-09-03T04:35:31.331Z,3.92
2023-09-03T04:38:01.523Z,3.97
2023-09-03T04:40:31.780Z,3.70
2023-09-03T04:43:02.154Z,3.88
2023-09-03T04:45:36.025Z,4.15
2023-09-03T04:48:07.948Z,3.72
2023-09-03T04:50:39.314Z,3.95
2023-09-03T04:53:10.445Z,3.60
2023-09-03T04:55:40.679Z,3.72
2023-09-03T04:58:11.008Z,3.55
2023-09-03T05:00:44.382Z,3.90
2023-09-03T05:03:14.706Z,3.90
2023-09-03T05:05:45.321Z,3.92
2023-09-03T05:08:17.063Z,4.13
2023-09-03T05:10:48.195Z,3.47
2023-09-03T05:13:18.415Z,4.07
2023-09-03T05:15:54.050Z,3.67
2023-09-03T05:18:24.296Z,4.18
2023-09-03T05:20:55.106Z,4.22
2023-09-03T05:23:25.202Z,3.70
2023-09-03T05:25:55.531Z,3.92
2023-09-03T05:28:25.671Z,3.75
2023-09-03T05:30:58.552Z,3.72
2023-09-03T05:33:29.229Z,3.40
2023-09-03T05:35:59.642Z,3.78
2023-09-03T05:38:30.092Z,3.25
2023-09-03T05:41:01.988Z,3.10
2023-09-03T05:43:32.634Z,3.63
2023-09-03T05:46:05.665Z,3.33
2023-09-03T05:48:37.259Z,3.53
2023-09-03T05:51:11.445Z,2.72
2023-09-03T05:53:44.369Z,3.95
2023-09-03T05:56:15.439Z,3.33
2023-09-03T05:58:48.486Z,2.97
2023-09-03T06:01:21.299Z,3.05
2023-09-03T06:03:51.412Z,3.13
2023-09-03T06:06:21.528Z,3.85
2023-09-03T06:08:51.618Z,3.28
2023-09-03T06:11:21.918Z,3.10
2023-09-03T06:13:51.980Z,2.53
2023-09-03T06:16:24.691Z,3.28
2023-09-03T06:18:54.916Z,3.28
2023-09-03T06:21:25.962Z,3.35
2023-09-03T06:23:56.028Z,2.80
2023-09-03T06:26:26.208Z,3.33
2023-09-03T06:28:56.288Z,3.47
2023-09-03T06:31:29.069Z,3.10
2023-09-03T06:33:59.126Z,3.00
2023-09-03T06:36:29.250Z,3.00
2023-09-03T06:38:59.744Z,3.17
2023-09-03T06:41:29.804Z,2.85
2023-09-03T06:43:59.956Z,3.17
2023-09-03T06:46:32.680Z,4.35
2023-09-03T06:49:02.809Z,3.15
2023-09-03T06:51:32.913Z,3.55
2023-09-03T06:54:03.343Z,3.42
2023-09-03T06:56:33.413Z,3.70
2023-09-03T06:59:03.492Z,3.33
2023-09-03T07:01:36.299Z,4.05
2023-09-03T07:04:06.694Z,3.85
2023-09-03T07:06:36.835Z,3.35
2023-09-03T07:09:06.988Z,3.40
2023-09-03T07:11:37.050Z,3.30
2023-09-03T07:14:07.213Z,3.38
2023-09-03T07:16:39.940Z,3.42
2023-09-03T07:19:10.171Z,2.95
2023-09-03T07:21:40.331Z,3.45
2023-09-03T07:24:12.414Z,3.47
2023-09-03T07:26:42.528Z,3.58
2023-09-03T07:29:14.242Z,3.25
2023-09-03T07:31:47.566Z,3.38
2023-09-03T07:34:18.085Z,3.30
2023-09-03T07:36:48.172Z,3.35
2023-09-03T07:39:18.338Z,3.83
2023-09-03T07:41:50.042Z,3.53
2023-09-03T07:44:20.152Z,3.75
2023-09-03T07:46:52.837Z,3.95
2023-09-03T07:49:22.910Z,3.53
2023-09-03T07:51:53.120Z,3.65
2023-09-03T07:54:23.198Z,4.10
2023-09-03T07:56:53.325Z,3.42
2023-09-03T07:59:23.583Z,3.47
2023-09-03T08:01:57.581Z,3.28
2023-09-03T08:04:27.964Z,3.42
2023-09-03T08:06:58.053Z,3.55
2023-09-03T08:09:29.029Z,3.30
2023-09-03T08:11:59.098Z,3.53
2023-09-03T08:14:29.175Z,3.40
2023-09-03T08:17:01.912Z,3.72
2023-09-03T08:19:32.187Z,4.18
2023-09-03T08:22:02.301Z,3.60
2023-09-03T08:24:32.414Z,3.45
2023-09-03T08:27:02.882Z,3.50
2023-09-03T08:29:32.987Z,3.80
2023-09-03T08:32:05.751Z,3.75
2023-09-03T08:34:35.861Z,3.40
2023-09-03T08:37:06.042Z,3.35
2023-09-03T08:39:36.144Z,3.50
2023-09-03T08:42:06.910Z,3.67
2023-09-03T08:44:40.438Z,3.13
2023-09-03T08:47:14.718Z,3.58
2023-09-03T08:49:44.949Z,3.15
2023-09-03T08:52:15.270Z,3.33
2023-09-03T08:54:45.484Z,2.83
2023-09-03T08:57:13.460Z,3.35
2023-09-03T08:59:43.556Z,3.25
2023-09-03T09:02:17.061Z,3.42
2023-09-03T09:04:47.268Z,3.15
2023-09-03T09:07:17.988Z,3.08
2023-09-03T09:09:49.603Z,3.35
2023-09-03T09:12:22.209Z,3.33
2023-09-03T09:14:57.090Z,3.47
2023-09-03T09:17:29.971Z,3.25
2023-09-03T09:20:01.595Z,3.38
2023-09-03T09:22:31.751Z,3.45
2023-09-03T09:25:02.219Z,3.85
2023-09-03T09:27:32.326Z,3.67
2023-09-03T09:30:12.777Z,3.90
2023-09-03T09:32:46.535Z,4.35
2023-09-03T09:35:26.856Z,3.63
2023-09-03T09:37:56.935Z,3.70
2023-09-03T09:40:31.153Z,3.70
2023-09-03T09:43:02.778Z,3.60
2023-09-03T09:45:32.896Z,4.00
2023-09-03T09:48:12.400Z,4.30
2023-09-03T09:50:43.982Z,4.45
2023-09-03T09:53:24.859Z,3.50
2023-09-03T09:56:02.957Z,3.63
2023-09-03T09:58:42.689Z,3.53
2023-09-03T10:01:13.174Z,4.10
2023-09-03T10:03:50.797Z,3.60
2023-09-03T10:06:22.116Z,3.97
2023-09-03T10:08:53.602Z,3.65
2023-09-03T10:11:23.978Z,3.58
2023-09-03T10:13:54.227Z,3.47
2023-09-03T10:16:24.304Z,3.78
2023-09-03T10:18:58.854Z,3.67
2023-09-03T10:21:47.357Z,3.72
2023-09-03T10:24:20.648Z,3.60
2023-09-03T10:26:54.376Z,3.58
2023-09-03T10:29:25.962Z,3.55
2023-09-03T10:31:57.690Z,3.63
2023-09-03T10:34:31.597Z,4.40
2023-09-03T10:37:07.274Z,3.70
2023-09-03T10:39:39.045Z,3.50
2023-09-03T10:42:31.483Z,3.25
2023-09-03T10:45:04.012Z,3.25
2023-09-03T10:47:34.142Z,3.38
2023-09-03T10:50:07.209Z,3.15
2023-09-03T10:52:43.872Z,3.58
2023-09-03T10:55:18.193Z,3.60
2023-09-03T10:57:49.091Z,3.20
2023-09-03T11:00:25.867Z,3.53
2023-09-03T11:03:19.988Z,3.45
2023-09-03T11:06:25.472Z,3.85
2023-09-03T11:09:25.320Z,3.65
2023-09-03T11:12:04.487Z,3.85
2023-09-03T11:14:35.888Z,3.42
2023-09-03T11:17:15.204Z,3.05
2023-09-03T11:19:45.364Z,3.25
2023-09-03T11:22:15.546Z,2.80
2023-09-03T11:24:51.532Z,2.72
2023-09-03T11:27:24.329Z,2.80
2023-09-03T11:29:54.434Z,2.65
2023-09-03T11:32:39.331Z,2.97
2023-09-03T11:35:10.037Z,2.78
2023-09-03T11:37:40.126Z,2.75
2023-09-03T11:40:11.940Z,2.80
2023-09-03T11:42:50.183Z,2.28
2023-09-03T11:45:20.893Z,2.47
2023-09-03T11:47:52.278Z,3.05
2023-09-03T11:50:22.593Z,2.97
2023-09-03T11:52:52.736Z,2.42
2023-09-03T11:55:22.852Z,2.45
2023-09-03T11:57:56.179Z,2.53
2023-09-03T12:00:26.375Z,2.22
2023-09-03T12:02:58.853Z,2.28
2023-09-03T12:05:29.634Z,2.30
2023-09-03T12:08:05.018Z,2.40
2023-09-03T12:10:35.948Z,2.30
2023-09-03T12:13:09.897Z,1.85
2023-09-03T12:15:39.996Z,1.95
2023-09-03T12:18:11.760Z,2.10
2023-09-03T12:20:44.107Z,2.08
2023-09-03T12:23:16.521Z,1.80
2023-09-03T12:25:47.618Z,1.83
2023-09-03T12:28:20.587Z,1.67
2023-09-03T12:31:03.553Z,1.90
2023-09-03T12:33:48.597Z,1.92
2023-09-03T12:36:19.936Z,1.48
2023-09-03T12:38:57.628Z,1.30
2023-09-03T12:41:29.128Z,1.50
2023-09-03T12:44:08.503Z,1.58
2023-09-03T12:46:38.828Z,1.45
2023-09-03T12:49:09.103Z,1.63
2023-09-03T12:51:41.014Z,1.60
2023-09-03T12:54:11.055Z,1.70
2023-09-03T12:56:41.180Z,1.90
2023-09-03T12:59:13.913Z,1.70
2023-09-03T13:01:44.917Z,1.38
2023-09-03T13:04:16.341Z,1.55
2023-09-03T13:06:46.944Z,1.58
2023-09-03T13:09:17.034Z,1.73
2023-09-03T13:11:47.629Z,1.75
2023-09-03T13:14:20.357Z,1.95
2023-09-03T13:16:51.484Z,1.90
2023-09-03T13:19:21.587Z,1.40
2023-09-03T13:21:51.752Z,1.50
2023-09-03T13:24:21.850Z,1.55
2023-09-03T13:26:52.549Z,1.70
2023-09-03T13:29:25.266Z,1.80
2023-09-03T13:31:56.045Z,1.60
2023-09-03T13:34:26.204Z,1.40
2023-09-03T13:36:56.281Z,1.23
2023-09-03T13:39:26.441Z,1.42
2023-09-03T13:41:57.248Z,1.60
2023-09-03T13:44:29.892Z,1.80
2023-09-03T13:47:00.438Z,1.60
2023-09-03T13:49:30.808Z,1.73
2023-09-03T13:52:00.901Z,1.50
2023-09-03T13:54:30.927Z,1.60
2023-09-03T13:57:00.997Z,1.55
2023-09-03T13:59:33.700Z,1.50
2023-09-03T14:02:04.836Z,1.80
2023-09-03T14:04:34.928Z,2.08
2023-09-03T14:07:05.038Z,1.80
2023-09-03T14:09:35.179Z,1.80
2023-09-03T14:12:05.263Z,2.28
2023-09-03T14:14:38.227Z,1.73
2023-09-03T14:17:08.352Z,2.00
2023-09-03T14:19:38.495Z,1.63
2023-09-03T14:22:08.706Z,1.90
2023-09-03T14:24:39.277Z,1.60
2023-09-03T14:27:09.352Z,1.52
2023-09-03T14:29:42.161Z,1.95
2023-09-03T14:32:12.428Z,1.65
2023-09-03T14:34:44.314Z,1.55
2023-09-03T14:37:14.990Z,1.70
2023-09-03T14:39:45.314Z,1.60
2023-09-03T14:42:15.398Z,1.67
2023-09-03T14:44:48.105Z,1.50
2023-09-03T14:47:18.944Z,1.45
2023-09-03T14:49:49.020Z,1.63
2023-09-03T14:52:20.615Z,1.50
2023-09-03T14:54:50.866Z,1.88
2023-09-03T14:57:20.994Z,1.65
2023-09-03T14:59:53.698Z,1.65
2023-09-03T15:02:23.826Z,1.52
2023-09-03T15:04:54.003Z,1.55
2023-09-03T15:07:24.246Z,1.60
2023-09-03T15:09:55.967Z,1.63
2023-09-03T15:12:26.000Z,1.60
2023-09-03T15:14:58.706Z,1.80
2023-09-03T15:17:28.865Z,1.60
2023-09-03T15:19:59.044Z,1.70
2023-09-03T15:22:29.218Z,1.83
2023-09-03T15:24:59.334Z,1.40
2023-09-03T15:27:29.393Z,1.65
2023-09-03T15:30:02.179Z,2.20
2023-09-03T15:32:33.437Z,1.85
2023-09-03T15:35:04.662Z,2.00
2023-09-03T15:37:34.706Z,1.95
2023-09-03T15:40:04.997Z,1.80
2023-09-03T15:42:35.064Z,2.20
2023-09-03T15:45:08.861Z,1.92
2023-09-03T15:47:39.004Z,2.00
2023-09-03T15:50:10.184Z,1.95
2023-09-03T15:52:40.269Z,1.90
2023-09-03T15:55:11.193Z,1.88
2023-09-03T15:57:42.187Z,2.30
2023-09-03T16:00:17.151Z,2.05
2023-09-03T16:02:47.338Z,2.20
2023-09-03T16:05:17.514Z,1.90
2023-09-03T16:07:47.616Z,2.05
2023-09-03T16:10:17.684Z,1.85
2023-09-03T16:12:51.337Z,2.17
2023-09-03T16:15:24.136Z,2.10
2023-09-03T16:17:55.077Z,2.20
2023-09-03T16:20:25.966Z,2.35
2023-09-03T16:22:56.109Z,2.15
2023-09-03T16:25:26.193Z,1.80
2023-09-03T16:27:56.274Z,1.85
2023-09-03T16:30:29.378Z,2.10
2023-09-03T16:32:59.526Z,2.00
2023-09-03T16:35:29.939Z,1.80
2023-09-03T16:38:00.210Z,2.17
2023-09-03T16:40:30.316Z,2.00
2023-09-03T16:43:00.399Z,2.00
2023-09-03T16:45:33.072Z,2.15
2023-09-03T16:48:03.177Z,2.03
2023-09-03T16:50:33.775Z,2.30
2023-09-03T16:53:04.006Z,2.30
2023-09-03T16:55:34.744Z,2.30
2023-09-03T16:58:05.018Z,1.92
2023-09-03T17:00:37.778Z,2.28
2023-09-03T17:03:08.623Z,2.05
2023-09-03T17:05:38.792Z,2.10
2023-09-03T17:08:09.302Z,2.45
2023-09-03T17:10:39.390Z,2.17
2023-09-03T17:13:09.483Z,2.10
2023-09-03T17:15:44.278Z,2.15
2023-09-03T17:18:14.563Z,2.30
2023-09-03T17:20:45.861Z,2.17
2023-09-03T17:23:16.423Z,2.03
2023-09-03T17:25:46.478Z,2.65
2023-09-03T17:28:16.686Z,2.47
2023-09-03T17:30:49.588Z,2.40
2023-09-03T17:33:19.679Z,2.40
2023-09-03T17:35:49.752Z,2.60
2023-09-03T17:38:20.060Z,2.63
2023-09-03T17:40:50.433Z,2.05
2023-09-03T17:43:20.516Z,2.35
2023-09-03T17:45:53.273Z,2.30
2023-09-03T17:48:25.581Z,2.70
2023-09-03T17:50:56.169Z,2.30
2023-09-03T17:53:26.239Z,2.42
2023-09-03T17:55:56.321Z,2.22
2023-09-03T17:58:26.460Z,2.50
2023-09-03T18:01:00.552Z,2.38
2023-09-03T18:03:30.753Z,2.30
2023-09-03T18:06:00.903Z,3.05
2023-09-03T18:08:31.328Z,2.90
2023-09-03T18:11:01.391Z,2.88
2023-09-03T18:13:31.524Z,2.78
2023-09-03T18:16:04.520Z,2.40
2023-09-03T18:18:34.695Z,2.90
2023-09-03T18:21:04.843Z,3.55
2023-09-03T18:23:34.991Z,2.90
2023-09-03T18:26:09.135Z,2.70
2023-09-03T18:28:39.244Z,2.60
2023-09-03T18:31:12.093Z,2.97
2023-09-03T18:33:43.978Z,3.30
2023-09-03T18:36:14.099Z,2.97
2023-09-03T18:38:44.418Z,3.13
2023-09-03T18:41:14.502Z,3.13
2023-09-03T18:43:46.640Z,2.80
2023-09-03T18:46:19.392Z,2.70
2023-09-03T18:48:49.577Z,3.10
2023-09-03T18:51:19.637Z,2.95
2023-09-03T18:53:49.692Z,3.65
2023-09-03T18:56:19.894Z,2.92
2023-09-03T18:58:50.126Z,2.83
2023-09-03T19:01:25.949Z,3.30
2023-09-03T19:03:56.130Z,2.95
2023-09-03T19:06:26.215Z,3.25
2023-09-03T19:08:56.283Z,3.25
2023-09-03T19:11:26.353Z,3.13
2023-09-03T19:13:56.435Z,3.33
2023-09-03T19:16:30.016Z,3.53
2023-09-03T19:19:00.224Z,3.00
2023-09-03T19:21:31.961Z,3.10
2023-09-03T19:24:04.880Z,2.75
2023-09-03T19:26:35.693Z,3.17
2023-09-03T19:29:05.851Z,2.85
2023-09-03T19:31:38.556Z,3.08
2023-09-03T19:34:23.581Z,3.03
2023-09-03T19:36:55.389Z,2.92
2023-09-03T19:39:26.311Z,3.30
2023-09-03T19:41:57.817Z,2.78
2023-09-03T19:44:27.942Z,2.53
2023-09-03T19:47:03.420Z,3.00
2023-09-03T19:49:35.354Z,2.65
2023-09-03T19:52:05.424Z,2.55
2023-09-03T19:54:35.498Z,2.47
2023-09-03T19:57:05.566Z,3.00
2023-09-03T19:59:35.613Z,2.55
2023-09-03T20:02:09.007Z,2.45
2023-09-03T20:04:42.570Z,2.53
2023-09-03T20:07:12.927Z,2.47
2023-09-03T20:09:43.112Z,2.75
2023-09-03T20:12:13.266Z,2.58
2023-09-03T20:14:43.392Z,2.55
2023-09-03T20:17:16.071Z,2.65
2023-09-03T20:19:49.104Z,2.20
2023-09-03T20:24:51.846Z,2.90
2023-09-03T20:27:22.421Z,2.45
2023-09-03T20:29:52.466Z,2.50
2023-09-03T20:32:25.192Z,2.40
2023-09-03T20:34:55.324Z,2.72
2023-09-03T20:37:25.451Z,2.50
2023-09-03T20:39:55.901Z,3.20
2023-09-03T20:42:25.955Z,2.33
2023-09-03T20:44:56.028Z,2.05
2023-09-03T20:47:28.822Z,2.50
2023-09-03T20:49:58.954Z,2.05
2023-09-03T20:52:29.494Z,2.10
2023-09-03T20:54:59.657Z,2.10
2023-09-03T20:57:29.728Z,2.40
2023-09-03T20:59:59.824Z,2.45
2023-09-03T21:02:32.554Z,1.92
2023-09-03T21:05:02.722Z,1.90
2023-09-03T21:07:32.796Z,1.85
2023-09-03T21:10:02.935Z,2.00
2023-09-03T21:12:33.015Z,1.83
2023-09-03T21:15:03.117Z,2.47
2023-09-03T21:17:36.322Z,2.15
2023-09-03T21:20:07.890Z,2.47
2023-09-03T21:22:38.068Z,1.63
2023-09-03T21:25:09.106Z,2.10
2023-09-03T21:27:39.262Z,1.83
2023-09-03T21:30:10.540Z,2.08
2023-09-03T21:32:43.481Z,2.10
2023-09-03T21:35:23.148Z,2.22
2023-09-03T21:37:54.249Z,2.00
2023-09-03T21:40:24.338Z,2.33
2023-09-03T21:42:54.466Z,1.98
2023-09-03T21:45:24.677Z,2.10
2023-09-03T21:47:57.441Z,1.90
2023-09-03T21:50:27.591Z,2.28
2023-09-03T21:52:58.094Z,2.47
2023-09-03T21:55:28.424Z,2.47
2023-09-03T21:57:58.527Z,2.33
2023-09-03T22:00:28.580Z,2.30
2023-09-03T22:03:01.484Z,2.30
2023-09-03T22:05:31.641Z,2.08
2023-09-03T22:08:01.758Z,2.53
2023-09-03T22:10:31.950Z,2.10
2023-09-03T22:13:04.621Z,2.80
2023-09-03T22:15:35.146Z,2.70
2023-09-03T22:18:08.300Z,2.35
2023-09-03T22:20:38.386Z,2.28
2023-09-03T22:23:08.693Z,3.05
2023-09-03T22:25:38.953Z,2.53
2023-09-03T22:28:10.479Z,2.03
2023-09-03T22:30:41.232Z,2.90
2023-09-03T22:33:13.984Z,2.30
2023-09-03T22:35:44.064Z,2.58
2023-09-03T22:38:14.144Z,2.78
2023-09-03T22:40:44.208Z,2.80
2023-09-03T22:43:14.648Z,3.30
2023-09-03T22:45:44.797Z,3.58
2023-09-03T22:48:17.500Z,2.92
2023-09-03T22:50:47.545Z,3.00
2023-09-03T22:53:17.897Z,2.90
2023-09-03T22:55:47.991Z,3.15
2023-09-03T22:58:18.053Z,3.03
2023-09-03T23:00:48.204Z,3.10
2023-09-03T23:03:20.963Z,2.17
2023-09-03T23:05:52.159Z,2.13
2023-09-03T23:08:22.476Z,2.25
2023-09-03T23:10:52.759Z,2.60
2023-09-03T23:13:22.869Z,2.60
2023-09-03T23:15:52.954Z,2.42
2023-09-03T23:18:25.824Z,2.65
2023-09-03T23:20:56.085Z,2.15
2023-09-03T23:23:26.297Z,2.70
2023-09-03T23:25:56.402Z,2.42
2023-09-03T23:28:24.141Z,2.40
2023-09-03T23:30:56.606Z,2.15
2023-09-03T23:33:29.341Z,2.45
2023-09-03T23:35:59.421Z,2.40
2023-09-03T23:38:29.700Z,2.40
2023-09-03T23:40:59.763Z,2.22
2023-09-03T23:43:29.851Z,2.67
2023-09-03T23:46:00.241Z,2.28
2023-09-03T23:48:32.913Z,2.28
2023-09-03T23:51:03.473Z,2.40
2023-09-03T23:53:33.562Z,2.10
2023-09-03T23:56:03.618Z,2.40
2023-09-03T23:58:34.374Z,2.28
